sensor_id;sensor_type;location;lat;lon;timestamp;P1;durP1;ratioP1;P2;durP2;ratioP2
45684;SDS011;46836;48.388;16.210;2022-10-13T00:02:19;9.07;;;5.72;;
45684;SDS011;46836;48.388;16.210;2022-10-13T00:04:46;7.90;;;6.03;;
45684;SDS011;46836;48.388;16.210;2022-10-13T00:07:13;10.27;;;6.00;;
45684;SDS011;46836;48.388;16.210;2022-10-13T00:09:40;15.52;;;6.97;;
45684;SDS011;46836;48.388;16.210;2022-10-13T00:12:07;7.88;;;6.53;;
45684;SDS011;46836;48.388;16.210;2022-10-13T00:14:34;9.57;;;6.72;;
45684;SDS011;46836;48.388;16.210;2022-10-13T00:17:01;9.48;;;5.70;;
45684;SDS011;46836;48.388;16.210;2022-10-13T00:19:28;9.98;;;6.45;;
45684;SDS011;46836;48.388;16.210;2022-10-13T00:21:56;11.55;;;6.00;;
45684;SDS011;46836;48.388;16.210;2022-10-13T00:24:23;14.43;;;6.82;;
45684;SDS011;46836;48.388;16.210;2022-10-13T00:26:50;16.17;;;6.00;;
45684;SDS011;46836;48.388;16.210;2022-10-13T00:29:17;8.13;;;6.25;;
45684;SDS011;46836;48.388;16.210;2022-10-13T00:31:44;13.68;;;6.07;;
45684;SDS011;46836;48.388;16.210;2022-10-13T00:34:11;8.93;;;6.65;;
45684;SDS011;46836;48.388;16.210;2022-10-13T00:36:38;10.48;;;6.78;;
45684;SDS011;46836;48.388;16.210;2022-10-13T00:39:05;9.00;;;6.35;;
45684;SDS011;46836;48.388;16.210;2022-10-13T00:41:33;7.82;;;6.70;;
45684;SDS011;46836;48.388;16.210;2022-10-13T00:44:03;8.95;;;7.10;;
45684;SDS011;46836;48.388;16.210;2022-10-13T00:46:33;9.00;;;6.95;;
45684;SDS011;46836;48.388;16.210;2022-10-13T00:49:06;10.85;;;6.90;;
45684;SDS011;46836;48.388;16.210;2022-10-13T00:51:38;10.35;;;7.28;;
45684;SDS011;46836;48.388;16.210;2022-10-13T00:54:10;8.18;;;6.43;;
45684;SDS011;46836;48.388;16.210;2022-10-13T00:56:42;9.57;;;6.35;;
45684;SDS011;46836;48.388;16.210;2022-10-13T00:59:12;11.60;;;6.53;;
45684;SDS011;46836;48.388;16.210;2022-10-13T01:01:51;9.05;;;6.40;;
45684;SDS011;46836;48.388;16.210;2022-10-13T01:04:19;7.45;;;5.75;;
45684;SDS011;46836;48.388;16.210;2022-10-13T01:06:50;9.05;;;5.97;;
45684;SDS011;46836;48.388;16.210;2022-10-13T01:09:18;9.32;;;5.65;;
45684;SDS011;46836;48.388;16.210;2022-10-13T01:17:17;8.70;;;6.15;;
45684;SDS011;46836;48.388;16.210;2022-10-13T01:23:36;7.68;;;6.00;;
45684;SDS011;46836;48.388;16.210;2022-10-13T01:41:16;8.75;;;7.65;;
45684;SDS011;46836;48.388;16.210;2022-10-13T01:43:26;14.13;;;7.63;;
45684;SDS011;46836;48.388;16.210;2022-10-13T01:45:59;8.30;;;7.40;;
45684;SDS011;46836;48.388;16.210;2022-10-13T01:48:34;11.85;;;7.75;;
45684;SDS011;46836;48.388;16.210;2022-10-13T01:51:05;16.08;;;8.15;;
45684;SDS011;46836;48.388;16.210;2022-10-13T01:53:35;21.50;;;8.82;;
45684;SDS011;46836;48.388;16.210;2022-10-13T01:56:03;11.70;;;8.25;;
45684;SDS011;46836;48.388;16.210;2022-10-13T01:58:31;11.80;;;8.25;;
45684;SDS011;46836;48.388;16.210;2022-10-13T02:07:05;11.60;;;8.02;;
45684;SDS011;46836;48.388;16.210;2022-10-13T02:09:42;11.52;;;8.95;;
45684;SDS011;46836;48.388;16.210;2022-10-13T02:12:24;9.52;;;8.13;;
45684;SDS011;46836;48.388;16.210;2022-10-13T02:15:00;11.27;;;8.80;;
45684;SDS011;46836;48.388;16.210;2022-10-13T02:17:30;9.85;;;7.78;;
45684;SDS011;46836;48.388;16.210;2022-10-13T02:19:57;18.02;;;8.55;;
45684;SDS011;46836;48.388;16.210;2022-10-13T02:22:26;12.07;;;7.88;;
45684;SDS011;46836;48.388;16.210;2022-10-13T02:24:58;11.10;;;7.80;;
45684;SDS011;46836;48.388;16.210;2022-10-13T02:27:25;16.30;;;8.82;;
45684;SDS011;46836;48.388;16.210;2022-10-13T02:29:54;12.32;;;8.73;;
45684;SDS011;46836;48.388;16.210;2022-10-13T02:32:22;12.98;;;9.10;;
45684;SDS011;46836;48.388;16.210;2022-10-13T02:34:50;10.13;;;7.90;;
45684;SDS011;46836;48.388;16.210;2022-10-13T02:37:17;12.90;;;7.93;;
45684;SDS011;46836;48.388;16.210;2022-10-13T02:39:44;12.88;;;8.13;;
45684;SDS011;46836;48.388;16.210;2022-10-13T02:42:11;10.63;;;7.82;;
45684;SDS011;46836;48.388;16.210;2022-10-13T02:44:38;10.35;;;8.10;;
45684;SDS011;46836;48.388;16.210;2022-10-13T02:47:05;8.98;;;8.07;;
45684;SDS011;46836;48.388;16.210;2022-10-13T02:49:32;9.23;;;7.75;;
45684;SDS011;46836;48.388;16.210;2022-10-13T02:51:59;25.00;;;7.75;;
45684;SDS011;46836;48.388;16.210;2022-10-13T02:54:26;14.55;;;8.10;;
45684;SDS011;46836;48.388;16.210;2022-10-13T02:56:53;11.65;;;7.30;;
45684;SDS011;46836;48.388;16.210;2022-10-13T02:59:21;9.00;;;7.38;;
45684;SDS011;46836;48.388;16.210;2022-10-13T03:01:48;12.13;;;7.70;;
45684;SDS011;46836;48.388;16.210;2022-10-13T03:04:15;10.95;;;7.90;;
45684;SDS011;46836;48.388;16.210;2022-10-13T03:06:42;12.98;;;8.93;;
45684;SDS011;46836;48.388;16.210;2022-10-13T03:09:09;16.50;;;8.25;;
45684;SDS011;46836;48.388;16.210;2022-10-13T03:11:36;13.65;;;7.68;;
45684;SDS011;46836;48.388;16.210;2022-10-13T03:14:03;15.77;;;8.40;;
45684;SDS011;46836;48.388;16.210;2022-10-13T03:16:30;8.85;;;6.70;;
45684;SDS011;46836;48.388;16.210;2022-10-13T03:18:57;10.18;;;8.02;;
45684;SDS011;46836;48.388;16.210;2022-10-13T03:21:24;12.93;;;8.40;;
45684;SDS011;46836;48.388;16.210;2022-10-13T03:23:51;10.35;;;8.48;;
45684;SDS011;46836;48.388;16.210;2022-10-13T03:26:19;10.32;;;8.00;;
45684;SDS011;46836;48.388;16.210;2022-10-13T03:28:49;11.88;;;8.68;;
45684;SDS011;46836;48.388;16.210;2022-10-13T03:31:17;11.32;;;7.47;;
45684;SDS011;46836;48.388;16.210;2022-10-13T03:33:44;13.25;;;7.75;;
45684;SDS011;46836;48.388;16.210;2022-10-13T03:36:11;12.00;;;7.68;;
45684;SDS011;46836;48.388;16.210;2022-10-13T03:38:38;11.35;;;8.20;;
45684;SDS011;46836;48.388;16.210;2022-10-13T03:41:06;11.45;;;7.60;;
45684;SDS011;46836;48.388;16.210;2022-10-13T03:43:35;11.23;;;8.40;;
45684;SDS011;46836;48.388;16.210;2022-10-13T03:46:04;12.82;;;8.38;;
45684;SDS011;46836;48.388;16.210;2022-10-13T03:48:33;11.02;;;8.25;;
45684;SDS011;46836;48.388;16.210;2022-10-13T03:51:05;9.95;;;7.90;;
45684;SDS011;46836;48.388;16.210;2022-10-13T03:53:36;10.38;;;7.25;;
45684;SDS011;46836;48.388;16.210;2022-10-13T03:56:04;11.57;;;7.90;;
45684;SDS011;46836;48.388;16.210;2022-10-13T03:58:33;21.38;;;8.68;;
45684;SDS011;46836;48.388;16.210;2022-10-13T04:01:01;10.98;;;7.75;;
45684;SDS011;46836;48.388;16.210;2022-10-13T04:03:31;9.55;;;7.80;;
45684;SDS011;46836;48.388;16.210;2022-10-13T04:06:00;11.57;;;7.57;;
45684;SDS011;46836;48.388;16.210;2022-10-13T04:08:28;10.85;;;8.35;;
45684;SDS011;46836;48.388;16.210;2022-10-13T04:11:00;12.32;;;8.50;;
45684;SDS011;46836;48.388;16.210;2022-10-13T04:13:30;13.85;;;8.32;;
45684;SDS011;46836;48.388;16.210;2022-10-13T04:16:03;11.10;;;8.40;;
45684;SDS011;46836;48.388;16.210;2022-10-13T04:18:32;12.02;;;8.05;;
45684;SDS011;46836;48.388;16.210;2022-10-13T04:21:00;10.18;;;8.10;;
45684;SDS011;46836;48.388;16.210;2022-10-13T04:23:27;18.38;;;8.13;;
45684;SDS011;46836;48.388;16.210;2022-10-13T04:25:54;12.60;;;8.20;;
45684;SDS011;46836;48.388;16.210;2022-10-13T04:28:22;10.90;;;7.97;;
45684;SDS011;46836;48.388;16.210;2022-10-13T04:30:49;22.77;;;10.35;;
45684;SDS011;46836;48.388;16.210;2022-10-13T04:33:16;14.25;;;9.35;;
45684;SDS011;46836;48.388;16.210;2022-10-13T04:35:43;15.70;;;8.93;;
45684;SDS011;46836;48.388;16.210;2022-10-13T04:38:10;10.93;;;7.70;;
45684;SDS011;46836;48.388;16.210;2022-10-13T04:40:37;15.80;;;8.40;;
45684;SDS011;46836;48.388;16.210;2022-10-13T04:43:04;15.15;;;8.18;;
45684;SDS011;46836;48.388;16.210;2022-10-13T04:45:31;13.13;;;8.40;;
45684;SDS011;46836;48.388;16.210;2022-10-13T04:47:59;11.55;;;8.32;;
45684;SDS011;46836;48.388;16.210;2022-10-13T04:50:26;10.32;;;8.45;;
45684;SDS011;46836;48.388;16.210;2022-10-13T04:52:54;11.45;;;8.35;;
45684;SDS011;46836;48.388;16.210;2022-10-13T04:55:21;14.00;;;8.50;;
45684;SDS011;46836;48.388;16.210;2022-10-13T04:57:47;14.68;;;8.95;;
45684;SDS011;46836;48.388;16.210;2022-10-13T05:00:14;15.57;;;9.70;;
45684;SDS011;46836;48.388;16.210;2022-10-13T05:02:42;12.13;;;8.57;;
45684;SDS011;46836;48.388;16.210;2022-10-13T05:05:09;13.23;;;8.95;;
45684;SDS011;46836;48.388;16.210;2022-10-13T05:07:37;13.95;;;8.90;;
45684;SDS011;46836;48.388;16.210;2022-10-13T05:10:04;15.30;;;8.85;;
45684;SDS011;46836;48.388;16.210;2022-10-13T05:12:31;13.70;;;9.13;;
45684;SDS011;46836;48.388;16.210;2022-10-13T05:14:58;11.90;;;8.48;;
45684;SDS011;46836;48.388;16.210;2022-10-13T05:17:27;11.88;;;9.05;;
45684;SDS011;46836;48.388;16.210;2022-10-13T05:20:00;12.60;;;8.35;;
45684;SDS011;46836;48.388;16.210;2022-10-13T05:22:27;11.90;;;7.95;;
45684;SDS011;46836;48.388;16.210;2022-10-13T05:24:55;11.20;;;8.75;;
45684;SDS011;46836;48.388;16.210;2022-10-13T05:27:22;10.70;;;8.80;;
45684;SDS011;46836;48.388;16.210;2022-10-13T05:29:49;12.18;;;8.52;;
45684;SDS011;46836;48.388;16.210;2022-10-13T05:32:16;13.35;;;8.77;;
45684;SDS011;46836;48.388;16.210;2022-10-13T05:34:43;13.10;;;9.85;;
45684;SDS011;46836;48.388;16.210;2022-10-13T05:37:12;11.57;;;8.60;;
45684;SDS011;46836;48.388;16.210;2022-10-13T05:39:42;11.35;;;8.93;;
45684;SDS011;46836;48.388;16.210;2022-10-13T05:42:14;14.85;;;9.18;;
45684;SDS011;46836;48.388;16.210;2022-10-13T05:44:41;13.70;;;9.25;;
45684;SDS011;46836;48.388;16.210;2022-10-13T05:47:08;14.50;;;9.30;;
45684;SDS011;46836;48.388;16.210;2022-10-13T05:49:35;10.93;;;8.60;;
45684;SDS011;46836;48.388;16.210;2022-10-13T05:52:06;17.10;;;8.70;;
45684;SDS011;46836;48.388;16.210;2022-10-13T05:54:36;11.98;;;8.73;;
45684;SDS011;46836;48.388;16.210;2022-10-13T05:57:13;15.32;;;9.48;;
45684;SDS011;46836;48.388;16.210;2022-10-13T05:59:50;18.52;;;9.07;;
45684;SDS011;46836;48.388;16.210;2022-10-13T06:02:21;14.80;;;9.50;;
45684;SDS011;46836;48.388;16.210;2022-10-13T06:04:52;12.93;;;8.82;;
45684;SDS011;46836;48.388;16.210;2022-10-13T06:07:22;17.13;;;9.70;;
45684;SDS011;46836;48.388;16.210;2022-10-13T06:09:50;16.60;;;10.32;;
45684;SDS011;46836;48.388;16.210;2022-10-13T06:12:17;15.60;;;9.52;;
45684;SDS011;46836;48.388;16.210;2022-10-13T06:14:45;14.95;;;9.57;;
45684;SDS011;46836;48.388;16.210;2022-10-13T06:17:12;11.63;;;8.75;;
45684;SDS011;46836;48.388;16.210;2022-10-13T06:19:39;11.68;;;8.30;;
45684;SDS011;46836;48.388;16.210;2022-10-13T06:22:07;11.27;;;8.95;;
45684;SDS011;46836;48.388;16.210;2022-10-13T06:24:34;16.95;;;10.13;;
45684;SDS011;46836;48.388;16.210;2022-10-13T06:27:01;14.27;;;9.73;;
45684;SDS011;46836;48.388;16.210;2022-10-13T06:29:29;13.15;;;9.68;;
45684;SDS011;46836;48.388;16.210;2022-10-13T06:31:56;12.85;;;10.40;;
45684;SDS011;46836;48.388;16.210;2022-10-13T06:34:22;14.68;;;9.50;;
45684;SDS011;46836;48.388;16.210;2022-10-13T06:36:50;13.00;;;9.73;;
45684;SDS011;46836;48.388;16.210;2022-10-13T06:39:17;12.77;;;9.40;;
45684;SDS011;46836;48.388;16.210;2022-10-13T06:41:44;19.20;;;9.95;;
45684;SDS011;46836;48.388;16.210;2022-10-13T06:44:11;13.98;;;8.05;;
45684;SDS011;46836;48.388;16.210;2022-10-13T06:46:38;17.33;;;9.57;;
45684;SDS011;46836;48.388;16.210;2022-10-13T06:49:05;17.15;;;8.93;;
45684;SDS011;46836;48.388;16.210;2022-10-13T06:51:35;14.55;;;9.65;;
45684;SDS011;46836;48.388;16.210;2022-10-13T06:54:02;14.57;;;9.63;;
45684;SDS011;46836;48.388;16.210;2022-10-13T06:56:29;15.80;;;9.88;;
45684;SDS011;46836;48.388;16.210;2022-10-13T06:58:56;12.90;;;9.07;;
45684;SDS011;46836;48.388;16.210;2022-10-13T07:01:23;12.50;;;9.38;;
45684;SDS011;46836;48.388;16.210;2022-10-13T07:03:50;14.18;;;8.90;;
45684;SDS011;46836;48.388;16.210;2022-10-13T07:06:17;21.70;;;10.07;;
45684;SDS011;46836;48.388;16.210;2022-10-13T07:08:45;11.77;;;8.65;;
45684;SDS011;46836;48.388;16.210;2022-10-13T07:11:12;9.68;;;7.80;;
45684;SDS011;46836;48.388;16.210;2022-10-13T07:13:41;16.80;;;10.38;;
45684;SDS011;46836;48.388;16.210;2022-10-13T07:16:12;15.85;;;8.85;;
45684;SDS011;46836;48.388;16.210;2022-10-13T07:18:40;24.17;;;10.73;;
45684;SDS011;46836;48.388;16.210;2022-10-13T07:21:08;12.45;;;8.73;;
45684;SDS011;46836;48.388;16.210;2022-10-13T07:23:35;19.83;;;8.75;;
45684;SDS011;46836;48.388;16.210;2022-10-13T07:26:05;15.00;;;9.63;;
45684;SDS011;46836;48.388;16.210;2022-10-13T07:28:34;14.88;;;8.52;;
45684;SDS011;46836;48.388;16.210;2022-10-13T07:31:06;14.55;;;9.93;;
45684;SDS011;46836;48.388;16.210;2022-10-13T07:33:37;16.42;;;9.75;;
45684;SDS011;46836;48.388;16.210;2022-10-13T07:36:04;15.52;;;9.90;;
45684;SDS011;46836;48.388;16.210;2022-10-13T07:38:32;14.50;;;10.00;;
45684;SDS011;46836;48.388;16.210;2022-10-13T07:40:59;19.63;;;9.85;;
45684;SDS011;46836;48.388;16.210;2022-10-13T07:43:28;14.98;;;9.02;;
45684;SDS011;46836;48.388;16.210;2022-10-13T07:45:57;13.60;;;8.82;;
45684;SDS011;46836;48.388;16.210;2022-10-13T07:48:25;16.60;;;9.40;;
45684;SDS011;46836;48.388;16.210;2022-10-13T07:50:54;11.70;;;9.23;;
45684;SDS011;46836;48.388;16.210;2022-10-13T07:53:21;11.75;;;9.40;;
45684;SDS011;46836;48.388;16.210;2022-10-13T07:55:48;13.57;;;9.25;;
45684;SDS011;46836;48.388;16.210;2022-10-13T07:58:15;17.90;;;9.52;;
45684;SDS011;46836;48.388;16.210;2022-10-13T08:00:42;12.85;;;8.85;;
45684;SDS011;46836;48.388;16.210;2022-10-13T08:03:09;11.85;;;9.05;;
45684;SDS011;46836;48.388;16.210;2022-10-13T08:05:36;16.25;;;9.63;;
45684;SDS011;46836;48.388;16.210;2022-10-13T08:08:04;12.18;;;9.35;;
45684;SDS011;46836;48.388;16.210;2022-10-13T08:10:31;14.40;;;10.48;;
45684;SDS011;46836;48.388;16.210;2022-10-13T08:12:58;13.05;;;10.23;;
45684;SDS011;46836;48.388;16.210;2022-10-13T08:15:25;14.57;;;9.32;;
45684;SDS011;46836;48.388;16.210;2022-10-13T08:17:52;20.20;;;9.35;;
45684;SDS011;46836;48.388;16.210;2022-10-13T08:20:19;15.88;;;9.10;;
45684;SDS011;46836;48.388;16.210;2022-10-13T08:22:46;35.15;;;11.05;;
45684;SDS011;46836;48.388;16.210;2022-10-13T08:25:13;16.85;;;9.50;;
45684;SDS011;46836;48.388;16.210;2022-10-13T08:27:40;10.90;;;8.63;;
45684;SDS011;46836;48.388;16.210;2022-10-13T08:30:17;12.98;;;9.35;;
45684;SDS011;46836;48.388;16.210;2022-10-13T08:32:45;14.57;;;9.63;;
45684;SDS011;46836;48.388;16.210;2022-10-13T08:35:12;15.82;;;10.00;;
45684;SDS011;46836;48.388;16.210;2022-10-13T08:37:39;17.98;;;9.75;;
45684;SDS011;46836;48.388;16.210;2022-10-13T08:40:09;13.50;;;8.70;;
45684;SDS011;46836;48.388;16.210;2022-10-13T08:42:42;14.95;;;8.80;;
45684;SDS011;46836;48.388;16.210;2022-10-13T08:45:12;13.27;;;8.50;;
45684;SDS011;46836;48.388;16.210;2022-10-13T08:48:06;13.40;;;9.27;;
45684;SDS011;46836;48.388;16.210;2022-10-13T08:50:39;14.23;;;9.90;;
45684;SDS011;46836;48.388;16.210;2022-10-13T08:55:54;20.05;;;9.20;;
45684;SDS011;46836;48.388;16.210;2022-10-13T08:58:34;13.80;;;8.27;;
45684;SDS011;46836;48.388;16.210;2022-10-13T09:01:17;16.25;;;8.50;;
45684;SDS011;46836;48.388;16.210;2022-10-13T09:06:22;14.18;;;9.18;;
45684;SDS011;46836;48.388;16.210;2022-10-13T09:08:55;16.95;;;9.35;;
45684;SDS011;46836;48.388;16.210;2022-10-13T09:11:25;13.27;;;10.20;;
45684;SDS011;46836;48.388;16.210;2022-10-13T09:13:55;17.25;;;10.48;;
45684;SDS011;46836;48.388;16.210;2022-10-13T09:16:31;10.00;;;8.63;;
45684;SDS011;46836;48.388;16.210;2022-10-13T09:21:50;13.85;;;8.32;;
45684;SDS011;46836;48.388;16.210;2022-10-13T09:24:39;12.98;;;8.73;;
45684;SDS011;46836;48.388;16.210;2022-10-13T09:27:13;34.13;;;10.85;;
45684;SDS011;46836;48.388;16.210;2022-10-13T09:29:42;16.40;;;8.77;;
45684;SDS011;46836;48.388;16.210;2022-10-13T09:32:17;20.10;;;10.70;;
45684;SDS011;46836;48.388;16.210;2022-10-13T09:34:47;12.35;;;8.77;;
45684;SDS011;46836;48.388;16.210;2022-10-13T09:37:16;15.23;;;9.55;;
45684;SDS011;46836;48.388;16.210;2022-10-13T09:40:00;14.70;;;8.18;;
45684;SDS011;46836;48.388;16.210;2022-10-13T09:42:39;30.63;;;10.98;;
45684;SDS011;46836;48.388;16.210;2022-10-13T09:45:13;16.15;;;9.45;;
45684;SDS011;46836;48.388;16.210;2022-10-13T09:50:47;37.45;;;10.82;;
45684;SDS011;46836;48.388;16.210;2022-10-13T09:59:13;18.58;;;9.88;;
45684;SDS011;46836;48.388;16.210;2022-10-13T10:02:00;17.50;;;9.95;;
45684;SDS011;46836;48.388;16.210;2022-10-13T10:04:45;13.75;;;10.15;;
45684;SDS011;46836;48.388;16.210;2022-10-13T10:07:24;15.27;;;8.90;;
45684;SDS011;46836;48.388;16.210;2022-10-13T10:09:55;12.45;;;9.63;;
45684;SDS011;46836;48.388;16.210;2022-10-13T10:12:28;13.43;;;9.10;;
45684;SDS011;46836;48.388;16.210;2022-10-13T10:14:58;12.65;;;9.85;;
45684;SDS011;46836;48.388;16.210;2022-10-13T10:22:50;19.80;;;11.30;;
45684;SDS011;46836;48.388;16.210;2022-10-13T10:45:27;15.68;;;9.45;;
45684;SDS011;46836;48.388;16.210;2022-10-13T10:48:00;17.57;;;10.73;;
45684;SDS011;46836;48.388;16.210;2022-10-13T10:50:37;15.23;;;9.93;;
45684;SDS011;46836;48.388;16.210;2022-10-13T10:55:57;14.70;;;10.40;;
45684;SDS011;46836;48.388;16.210;2022-10-13T11:01:30;14.00;;;9.87;;
45684;SDS011;46836;48.388;16.210;2022-10-13T11:04:22;11.15;;;9.30;;
45684;SDS011;46836;48.388;16.210;2022-10-13T11:07:09;14.48;;;10.00;;
45684;SDS011;46836;48.388;16.210;2022-10-13T11:19:53;14.13;;;10.30;;
45684;SDS011;46836;48.388;16.210;2022-10-13T11:22:22;16.93;;;9.93;;
45684;SDS011;46836;48.388;16.210;2022-10-13T11:25:33;18.47;;;10.23;;
45684;SDS011;46836;48.388;16.210;2022-10-13T11:30:55;15.87;;;10.20;;
45684;SDS011;46836;48.388;16.210;2022-10-13T11:41:57;13.27;;;10.60;;
45684;SDS011;46836;48.388;16.210;2022-10-13T11:47:16;17.30;;;10.83;;
45684;SDS011;46836;48.388;16.210;2022-10-13T11:55:36;23.57;;;12.20;;
45684;SDS011;46836;48.388;16.210;2022-10-13T11:58:15;16.10;;;12.30;;
45684;SDS011;46836;48.388;16.210;2022-10-13T12:03:39;16.00;;;11.30;;
45684;SDS011;46836;48.388;16.210;2022-10-13T12:08:44;22.67;;;11.40;;
45684;SDS011;46836;48.388;16.210;2022-10-13T12:11:23;21.70;;;11.80;;
45684;SDS011;46836;48.388;16.210;2022-10-13T12:13:53;20.57;;;13.07;;
45684;SDS011;46836;48.388;16.210;2022-10-13T12:16:21;21.80;;;13.73;;
45684;SDS011;46836;48.388;16.210;2022-10-13T12:18:48;23.27;;;14.10;;
45684;SDS011;46836;48.388;16.210;2022-10-13T12:21:17;25.80;;;12.67;;
45684;SDS011;46836;48.388;16.210;2022-10-13T12:23:47;24.83;;;14.07;;
45684;SDS011;46836;48.388;16.210;2022-10-13T12:26:16;20.50;;;13.73;;
45684;SDS011;46836;48.388;16.210;2022-10-13T12:31:23;26.53;;;14.77;;
45684;SDS011;46836;48.388;16.210;2022-10-13T12:37:01;24.10;;;13.33;;
45684;SDS011;46836;48.388;16.210;2022-10-13T12:39:39;20.57;;;13.57;;
45684;SDS011;46836;48.388;16.210;2022-10-13T12:42:06;25.00;;;13.50;;
45684;SDS011;46836;48.388;16.210;2022-10-13T12:44:38;21.43;;;14.00;;
45684;SDS011;46836;48.388;16.210;2022-10-13T12:47:09;27.97;;;14.00;;
45684;SDS011;46836;48.388;16.210;2022-10-13T12:53:03;23.07;;;14.57;;
45684;SDS011;46836;48.388;16.210;2022-10-13T12:58:20;25.13;;;15.17;;
45684;SDS011;46836;48.388;16.210;2022-10-13T13:03:34;30.15;;;15.45;;
45684;SDS011;46836;48.388;16.210;2022-10-13T13:06:08;22.70;;;14.40;;
45684;SDS011;46836;48.388;16.210;2022-10-13T13:08:40;23.53;;;14.77;;
45684;SDS011;46836;48.388;16.210;2022-10-13T13:11:22;25.70;;;15.03;;
45684;SDS011;46836;48.388;16.210;2022-10-13T13:14:44;24.40;;;14.37;;
45684;SDS011;46836;48.388;16.210;2022-10-13T13:17:01;24.03;;;14.33;;
45684;SDS011;46836;48.388;16.210;2022-10-13T13:19:35;22.17;;;14.43;;
45684;SDS011;46836;48.388;16.210;2022-10-13T13:22:03;28.37;;;15.10;;
45684;SDS011;46836;48.388;16.210;2022-10-13T13:24:32;21.53;;;13.30;;
45684;SDS011;46836;48.388;16.210;2022-10-13T13:29:46;23.40;;;13.00;;
45684;SDS011;46836;48.388;16.210;2022-10-13T13:32:14;22.70;;;15.10;;
45684;SDS011;46836;48.388;16.210;2022-10-13T13:34:45;22.77;;;13.07;;
45684;SDS011;46836;48.388;16.210;2022-10-13T13:37:35;25.73;;;14.50;;
45684;SDS011;46836;48.388;16.210;2022-10-13T13:40:13;21.90;;;13.37;;
45684;SDS011;46836;48.388;16.210;2022-10-13T13:42:45;25.77;;;14.73;;
45684;SDS011;46836;48.388;16.210;2022-10-13T13:45:16;22.03;;;13.20;;
45684;SDS011;46836;48.388;16.210;2022-10-13T13:47:45;24.17;;;13.83;;
45684;SDS011;46836;48.388;16.210;2022-10-13T13:52:42;19.67;;;13.20;;
45684;SDS011;46836;48.388;16.210;2022-10-13T13:55:09;18.20;;;12.10;;
45684;SDS011;46836;48.388;16.210;2022-10-13T13:57:36;19.93;;;11.90;;
45684;SDS011;46836;48.388;16.210;2022-10-13T14:00:03;19.03;;;13.10;;
45684;SDS011;46836;48.388;16.210;2022-10-13T14:02:31;19.63;;;12.53;;
45684;SDS011;46836;48.388;16.210;2022-10-13T14:04:58;23.20;;;13.20;;
45684;SDS011;46836;48.388;16.210;2022-10-13T14:07:25;21.13;;;13.23;;
45684;SDS011;46836;48.388;16.210;2022-10-13T14:09:52;21.23;;;12.03;;
45684;SDS011;46836;48.388;16.210;2022-10-13T14:12:27;18.37;;;12.20;;
45684;SDS011;46836;48.388;16.210;2022-10-13T14:14:56;18.20;;;12.30;;
45684;SDS011;46836;48.388;16.210;2022-10-13T14:17:26;20.93;;;13.13;;
45684;SDS011;46836;48.388;16.210;2022-10-13T14:19:54;17.53;;;12.17;;
45684;SDS011;46836;48.388;16.210;2022-10-13T14:22:21;22.33;;;12.90;;
45684;SDS011;46836;48.388;16.210;2022-10-13T14:24:49;23.33;;;12.40;;
45684;SDS011;46836;48.388;16.210;2022-10-13T14:27:16;25.43;;;12.73;;
45684;SDS011;46836;48.388;16.210;2022-10-13T14:29:43;20.33;;;12.73;;
45684;SDS011;46836;48.388;16.210;2022-10-13T14:32:10;25.07;;;13.30;;
45684;SDS011;46836;48.388;16.210;2022-10-13T14:34:37;28.63;;;13.13;;
45684;SDS011;46836;48.388;16.210;2022-10-13T14:37:04;20.47;;;13.40;;
45684;SDS011;46836;48.388;16.210;2022-10-13T14:39:31;22.63;;;14.10;;
45684;SDS011;46836;48.388;16.210;2022-10-13T14:41:58;19.27;;;13.23;;
45684;SDS011;46836;48.388;16.210;2022-10-13T14:44:25;23.20;;;14.33;;
45684;SDS011;46836;48.388;16.210;2022-10-13T14:46:52;22.70;;;13.67;;
45684;SDS011;46836;48.388;16.210;2022-10-13T14:49:19;20.83;;;14.17;;
45684;SDS011;46836;48.388;16.210;2022-10-13T14:51:46;19.37;;;13.53;;
45684;SDS011;46836;48.388;16.210;2022-10-13T14:54:13;18.40;;;12.60;;
45684;SDS011;46836;48.388;16.210;2022-10-13T14:56:40;18.07;;;12.10;;
45684;SDS011;46836;48.388;16.210;2022-10-13T14:59:07;18.77;;;12.73;;
45684;SDS011;46836;48.388;16.210;2022-10-13T15:01:37;23.77;;;15.40;;
45684;SDS011;46836;48.388;16.210;2022-10-13T15:04:06;20.23;;;13.60;;
45684;SDS011;46836;48.388;16.210;2022-10-13T15:06:34;19.67;;;12.53;;
45684;SDS011;46836;48.388;16.210;2022-10-13T15:09:04;21.30;;;13.70;;
45684;SDS011;46836;48.388;16.210;2022-10-13T15:11:36;17.80;;;12.70;;
45684;SDS011;46836;48.388;16.210;2022-10-13T15:14:03;20.87;;;13.53;;
45684;SDS011;46836;48.388;16.210;2022-10-13T15:16:30;24.90;;;14.77;;
45684;SDS011;46836;48.388;16.210;2022-10-13T15:18:58;22.40;;;14.70;;
45684;SDS011;46836;48.388;16.210;2022-10-13T15:21:26;19.90;;;13.52;;
45684;SDS011;46836;48.388;16.210;2022-10-13T15:23:54;25.45;;;15.65;;
45684;SDS011;46836;48.388;16.210;2022-10-13T15:26:22;26.65;;;17.65;;
45684;SDS011;46836;48.388;16.210;2022-10-13T15:28:50;25.83;;;15.35;;
45684;SDS011;46836;48.388;16.210;2022-10-13T15:31:19;34.00;;;13.73;;
45684;SDS011;46836;48.388;16.210;2022-10-13T15:33:48;25.50;;;13.60;;
45684;SDS011;46836;48.388;16.210;2022-10-13T15:36:17;22.37;;;14.60;;
45684;SDS011;46836;48.388;16.210;2022-10-13T15:38:45;25.08;;;15.35;;
45684;SDS011;46836;48.388;16.210;2022-10-13T15:41:13;22.25;;;14.48;;
45684;SDS011;46836;48.388;16.210;2022-10-13T15:43:41;24.33;;;14.53;;
45684;SDS011;46836;48.388;16.210;2022-10-13T15:46:12;18.67;;;14.25;;
45684;SDS011;46836;48.388;16.210;2022-10-13T15:48:47;28.00;;;15.68;;
45684;SDS011;46836;48.388;16.210;2022-10-13T15:51:16;28.63;;;14.68;;
45684;SDS011;46836;48.388;16.210;2022-10-13T15:53:46;26.33;;;14.55;;
45684;SDS011;46836;48.388;16.210;2022-10-13T15:56:13;25.23;;;14.30;;
45684;SDS011;46836;48.388;16.210;2022-10-13T15:58:41;22.10;;;14.10;;
45684;SDS011;46836;48.388;16.210;2022-10-13T16:01:09;24.08;;;13.95;;
45684;SDS011;46836;48.388;16.210;2022-10-13T16:03:38;24.85;;;13.75;;
45684;SDS011;46836;48.388;16.210;2022-10-13T16:06:07;26.48;;;15.60;;
45684;SDS011;46836;48.388;16.210;2022-10-13T16:08:36;21.35;;;14.65;;
45684;SDS011;46836;48.388;16.210;2022-10-13T16:11:08;21.70;;;14.18;;
45684;SDS011;46836;48.388;16.210;2022-10-13T16:13:38;31.10;;;22.85;;
45684;SDS011;46836;48.388;16.210;2022-10-13T16:16:05;27.60;;;18.20;;
45684;SDS011;46836;48.388;16.210;2022-10-13T16:18:34;28.85;;;18.33;;
45684;SDS011;46836;48.388;16.210;2022-10-13T16:21:06;23.67;;;17.00;;
45684;SDS011;46836;48.388;16.210;2022-10-13T16:23:43;27.83;;;19.25;;
45684;SDS011;46836;48.388;16.210;2022-10-13T16:26:11;30.98;;;19.90;;
45684;SDS011;46836;48.388;16.210;2022-10-13T16:28:38;24.17;;;16.30;;
45684;SDS011;46836;48.388;16.210;2022-10-13T16:31:07;27.77;;;17.20;;
45684;SDS011;46836;48.388;16.210;2022-10-13T16:33:39;26.63;;;17.55;;
45684;SDS011;46836;48.388;16.210;2022-10-13T16:36:09;26.75;;;18.10;;
45684;SDS011;46836;48.388;16.210;2022-10-13T16:38:40;25.38;;;17.67;;
45684;SDS011;46836;48.388;16.210;2022-10-13T16:41:09;31.58;;;18.88;;
45684;SDS011;46836;48.388;16.210;2022-10-13T16:43:43;26.42;;;17.88;;
45684;SDS011;46836;48.388;16.210;2022-10-13T16:46:12;44.45;;;23.80;;
45684;SDS011;46836;48.388;16.210;2022-10-13T16:48:42;38.70;;;21.17;;